Time;durP1;ratioP1;P1;durP2;ratioP2;P2;SDS_P1;SDS_P2;PMS_P1;PMS_P2;Temp;Humidity;BMP_temperature;BMP_pressure;BME280_temperature;BME280_humidity;BME280_pressure;Samples;Min_cycle;Max_cycle;Signal;HPM_P1;HPM_P2
2023/01/12 00:00:25;;;;;;;26.20;15.00;;;;;;;5.39;86.01;99957.85;131296;1261;107370;-74
2023/01/12 00:03:52;;;;;;;28.90;15.80;;;;;;;5.41;86.20;99955.23;131382;1248;107191;-74
2023/01/12 00:06:57;;;;;;;25.10;15.20;;;;;;;5.47;86.30;99953.89;131375;1253;107406;-74
2023/01/12 00:10:03;;;;;;;24.10;14.80;;;;;;;5.51;86.42;99954.10;131080;1254;108668;-76
2023/01/12 00:13:08;;;;;;;26.30;16.00;;;;;;;5.53;86.50;99955.36;131062;1253;108647;-73
2023/01/12 00:16:40;;;;;;;23.60;14.70;;;;;;;5.53;86.43;99959.20;131121;1252;106651;-74
2023/01/12 00:19:45;;;;;;;24.50;14.00;;;;;;;5.49;86.47;99958.08;131105;1248;107510;-74
2023/01/12 00:22:51;;;;;;;23.30;13.00;;;;;;;5.48;86.71;99958.74;131093;1261;107550;-74
2023/01/12 00:25:56;;;;;;;21.00;13.00;;;;;;;5.50;86.90;99962.80;131088;1261;107191;-73
2023/01/12 00:29:02;;;;;;;22.60;13.60;;;;;;;5.54;86.95;99963.23;131056;1250;107306;-74
2023/01/12 00:32:11;;;;;;;21.00;13.40;;;;;;;5.57;86.73;99964.14;131113;1252;107447;-74
2023/01/12 00:35:17;;;;;;;21.60;13.30;;;;;;;5.59;87.03;99973.16;131144;1254;107337;-74
2023/01/12 00:38:23;;;;;;;22.30;13.40;;;;;;;5.60;86.77;99975.41;131358;1253;107888;-74
2023/01/12 00:48:15;;;;;;;20.80;12.30;;;;;;;5.61;87.16;99986.45;131417;1253;107662;-74
2023/01/12 00:51:21;;;;;;;19.80;12.30;;;;;;;5.64;87.43;99984.44;131100;1253;106691;-74
2023/01/12 00:54:27;;;;;;;21.30;12.40;;;;;;;5.67;87.27;99981.98;131383;1261;107542;-74
2023/01/12 00:57:32;;;;;;;21.40;13.00;;;;;;;5.70;87.35;99979.30;131360;1261;107391;-74
2023/01/12 01:00:38;;;;;;;20.60;12.50;;;;;;;5.72;87.42;99975.80;131138;1253;107551;-74
2023/01/12 01:03:43;;;;;;;18.00;11.30;;;;;;;5.72;87.33;99972.63;131144;1252;108140;-74
2023/01/12 01:06:49;;;;;;;16.00;10.00;;;;;;;5.71;87.53;99977.24;131347;1261;107552;-74
2023/01/12 01:09:54;;;;;;;18.00;11.60;;;;;;;5.75;87.44;99981.56;131343;1261;107559;-74
2023/01/12 01:13:00;;;;;;;16.20;10.60;;;;;;;5.79;87.41;99986.52;131081;1252;107462;-74
2023/01/12 01:16:08;;;;;;;18.40;12.00;;;;;;;5.82;87.44;99987.97;131271;1247;107299;-75
2023/01/12 01:19:13;;;;;;;17.90;11.60;;;;;;;5.86;87.41;99988.21;131302;1263;107412;-74
2023/01/12 01:22:19;;;;;;;17.10;11.50;;;;;;;5.86;87.29;99988.39;131087;1254;107307;-74
2023/01/12 01:25:24;;;;;;;16.90;11.00;;;;;;;5.85;87.58;99986.66;131291;1248;107337;-74
2023/01/12 01:28:31;;;;;;;15.50;10.00;;;;;;;5.85;87.62;99986.52;131252;1253;108123;-74
2023/01/12 01:31:37;;;;;;;20.10;10.50;;;;;;;5.86;87.68;99990.46;131240;1254;107463;-73
2023/01/12 01:34:42;;;;;;;16.90;11.20;;;;;;;5.91;87.83;99984.95;131317;1253;107491;-74
2023/01/12 01:37:48;;;;;;;16.60;10.70;;;;;;;5.95;87.73;99985.20;131359;1258;107617;-74
2023/01/12 01:40:54;;;;;;;14.70;10.80;;;;;;;5.96;87.57;99985.16;131400;1253;107581;-73
2023/01/12 01:44:03;;;;;;;15.90;10.90;;;;;;;5.97;87.75;99987.54;131343;1254;107552;-73
2023/01/12 01:47:16;;;;;;;15.10;9.80;;;;;;;5.98;87.75;99993.77;131216;1252;107571;-74
2023/01/12 01:50:27;;;;;;;16.10;9.40;;;;;;;5.97;87.68;99993.85;131156;1253;107494;-74
2023/01/12 01:53:36;;;;;;;15.50;9.80;;;;;;;5.99;87.80;100001.85;131103;1253;107694;-74
2023/01/12 01:56:42;;;;;;;15.80;10.70;;;;;;;6.02;88.04;100003.13;131112;1254;107547;-75
2023/01/12 01:59:54;;;;;;;18.50;10.80;;;;;;;6.05;88.02;100009.93;131051;1254;107960;-74
2023/01/12 02:03:02;;;;;;;16.80;11.10;;;;;;;6.07;87.75;100005.75;131449;1252;107530;-74
2023/01/12 02:06:08;;;;;;;16.80;11.00;;;;;;;6.08;87.91;100004.23;131358;1261;107273;-74
2023/01/12 02:09:18;;;;;;;16.10;9.70;;;;;;;6.05;87.78;100007.95;131304;1260;108126;-74
2023/01/12 02:19:55;;;;;;;17.40;10.60;;;;;;;6.12;88.13;100009.19;130462;1260;107531;-74
2023/01/12 02:23:37;;;;;;;15.90;10.60;;;;;;;6.17;88.34;100014.23;131159;1251;107234;-74
2023/01/12 02:27:18;;;;;;;15.90;11.00;;;;;;;6.19;88.39;100013.48;131175;1254;107386;-74
2023/01/12 02:30:52;;;;;;;16.60;10.70;;;;;;;6.20;88.34;100013.44;131083;1255;107397;-74
2023/01/12 02:34:09;;;;;;;14.50;9.80;;;;;;;6.18;88.30;100016.80;131393;1254;107429;-74
2023/01/12 02:37:24;;;;;;;16.00;9.80;;;;;;;6.17;88.80;100012.67;131323;1255;107253;-75
2023/01/12 02:40:37;;;;;;;17.80;10.10;;;;;;;6.19;88.49;100010.19;131097;1254;107498;-75
2023/01/12 02:43:44;;;;;;;17.50;11.00;;;;;;;6.24;88.93;100021.07;131204;1254;107436;-74
2023/01/12 02:46:52;;;;;;;16.00;10.50;;;;;;;6.30;88.72;100023.40;131183;1254;153093;-75
2023/01/12 02:50:03;;;;;;;16.00;10.70;;;;;;;6.32;88.95;100028.12;131108;1252;106474;-74
2023/01/12 02:53:14;;;;;;;15.70;11.00;;;;;;;6.33;88.88;100029.30;131255;1254;107484;-74
2023/01/12 02:56:24;;;;;;;15.90;10.30;;;;;;;6.33;89.08;100029.67;131240;1252;107383;-75
2023/01/12 02:59:33;;;;;;;16.10;9.60;;;;;;;6.32;88.88;100038.11;131389;1254;107553;-74
2023/01/12 03:02:39;;;;;;;18.00;10.90;;;;;;;6.34;89.07;100038.59;131368;1252;107516;-74
2023/01/12 03:05:46;;;;;;;16.00;11.20;;;;;;;6.39;89.22;100038.54;131354;1254;108610;-74
2023/01/12 03:08:53;;;;;;;17.40;11.60;;;;;;;6.44;89.45;100040.20;131054;1249;107226;-75
2023/01/12 03:12:05;;;;;;;16.10;11.30;;;;;;;6.48;89.43;100036.48;131129;1254;107535;-74
2023/01/12 03:15:16;;;;;;;15.70;10.10;;;;;;;6.49;88.95;100029.33;131214;1263;107295;-74
2023/01/12 03:18:28;;;;;;;17.00;10.30;;;;;;;6.49;89.05;100033.72;131094;1247;107524;-76
2023/01/12 03:21:38;;;;;;;20.00;11.30;;;;;;;6.51;89.39;100038.34;131094;1263;107332;-74
2023/01/12 03:24:50;;;;;;;16.50;11.20;;;;;;;6.56;89.38;100039.20;131111;1253;108810;-76
2023/01/12 03:27:58;;;;;;;18.50;11.20;;;;;;;6.59;89.21;100040.98;131093;1255;107490;-75
2023/01/12 03:31:09;;;;;;;17.40;11.80;;;;;;;6.61;89.44;100048.96;131052;1253;107513;-74
2023/01/12 03:34:15;;;;;;;18.70;12.20;;;;;;;6.61;89.50;100050.75;131288;1254;108548;-74
2023/01/12 03:37:29;;;;;;;17.80;11.10;;;;;;;6.58;89.44;100052.63;131083;1252;107476;-74
2023/01/12 03:40:39;;;;;;;17.30;10.60;;;;;;;6.58;89.78;100051.91;131397;1263;107339;-74
2023/01/12 03:43:50;;;;;;;18.20;11.80;;;;;;;6.60;90.04;100046.05;131108;1248;107609;-74
2023/01/12 03:47:01;;;;;;;19.00;11.80;;;;;;;6.66;89.96;100038.83;131226;1253;107766;-72
2023/01/12 03:50:11;;;;;;;20.50;12.40;;;;;;;6.70;89.69;100045.34;131204;1253;106391;-71
2023/01/12 03:53:21;;;;;;;19.50;12.30;;;;;;;6.73;89.71;100045.31;131390;1253;107631;-72
2023/01/12 03:56:29;;;;;;;49.60;26.80;;;;;;;6.74;89.77;100042.77;131385;1254;107283;-74
2023/01/12 03:59:35;;;;;;;38.80;16.90;;;;;;;6.73;89.59;100037.91;131291;1253;107537;-77
2023/01/12 04:02:42;;;;;;;136.00;35.20;;;;;;;6.71;89.87;100045.48;131368;1254;107617;-75
2023/01/12 04:05:48;;;;;;;93.00;35.70;;;;;;;6.72;90.04;100049.68;131225;1254;108787;-75
2023/01/12 04:08:53;;;;;;;135.00;71.50;;;;;;;6.74;89.97;100057.59;131128;1254;106507;-75
2023/01/12 04:12:11;;;;;;;55.10;29.80;;;;;;;6.78;89.87;100068.48;131283;1252;106018;-75
2023/01/12 04:15:16;;;;;;;42.40;23.30;;;;;;;6.81;89.98;100062.63;131325;1254;107511;-74
2023/01/12 04:18:22;;;;;;;38.10;19.60;;;;;;;6.81;89.87;100061.45;131419;1261;107624;-75
2023/01/12 04:24:51;;;;;;;44.50;23.20;;;;;;;6.80;90.10;100056.05;131362;1261;107522;-75
2023/01/12 04:27:59;;;;;;;74.60;34.60;;;;;;;6.81;89.95;100057.34;131350;1252;105523;-75
2023/01/12 04:31:05;;;;;;;122.70;54.60;;;;;;;6.85;90.13;100056.98;131154;1254;107441;-75
2023/01/12 04:34:11;;;;;;;80.30;36.80;;;;;;;6.89;90.15;100055.05;131113;1253;107561;-75
2023/01/12 04:37:17;;;;;;;57.40;26.90;;;;;;;6.91;90.14;100058.58;131195;1253;107531;-75
2023/01/12 04:40:23;;;;;;;28.70;17.20;;;;;;;6.90;90.17;100063.07;131208;1254;107457;-75
2023/01/12 04:43:29;;;;;;;42.60;24.30;;;;;;;6.89;90.26;100062.65;131351;1264;106392;-78
2023/01/12 04:46:34;;;;;;;22.40;14.20;;;;;;;6.87;90.08;100060.68;131204;1261;107630;-77
2023/01/12 04:49:40;;;;;;;28.00;16.70;;;;;;;6.87;90.15;100057.30;131260;1253;107615;-75
2023/01/12 04:52:45;;;;;;;22.80;13.80;;;;;;;6.90;90.30;100062.55;131363;1259;107525;-75
2023/01/12 04:55:51;;;;;;;33.70;23.00;;;;;;;6.94;90.53;100064.35;131203;1253;106534;-76
2023/01/12 04:58:59;;;;;;;28.90;17.90;;;;;;;6.94;90.24;100065.36;131234;1253;107629;-76
2023/01/12 05:02:05;;;;;;;24.90;14.90;;;;;;;6.96;90.33;100070.38;131404;1247;106522;-76
2023/01/12 05:05:11;;;;;;;28.40;14.60;;;;;;;6.94;90.32;100075.25;131464;1251;107200;-75
2023/01/12 05:11:40;;;;;;;92.20;49.00;;;;;;;6.94;91.02;100072.80;131114;1254;107431;-75
2023/01/12 05:14:45;;;;;;;62.00;29.00;;;;;;;6.96;90.77;100078.50;131106;1264;107634;-75
2023/01/12 05:17:53;;;;;;;65.80;31.30;;;;;;;7.00;90.63;100080.27;131124;1253;107575;-76
2023/01/12 05:20:59;;;;;;;100.10;43.80;;;;;;;7.03;90.76;100086.04;131126;1254;107369;-75
2023/01/12 05:24:05;;;;;;;31.20;16.00;;;;;;;7.03;90.76;100090.63;131092;1254;108106;-75
2023/01/12 05:27:11;;;;;;;32.20;16.00;;;;;;;7.04;90.70;100098.83;131066;1248;108614;-78
2023/01/12 05:30:18;;;;;;;71.40;30.80;;;;;;;7.05;90.84;100095.88;131139;1259;107465;-75
2023/01/12 05:33:23;;;;;;;32.50;17.40;;;;;;;7.10;91.04;100090.75;131157;1254;107619;-75
2023/01/12 05:36:30;;;;;;;37.50;19.10;;;;;;;7.13;90.97;100086.77;131103;1263;108608;-75
2023/01/12 05:39:35;;;;;;;43.60;22.70;;;;;;;7.14;90.87;100094.27;131151;1254;106981;-76
2023/01/12 05:46:06;;;;;;;168.50;56.50;;;;;;;7.10;90.61;100095.34;131136;1249;107186;-77
2023/01/12 05:49:12;;;;;;;122.80;45.20;;;;;;;7.05;90.68;100092.70;131255;1248;107232;-74
2023/01/12 05:52:18;;;;;;;42.60;21.00;;;;;;;7.03;90.72;100097.99;131160;1252;107462;-75
2023/01/12 05:55:23;;;;;;;26.70;15.50;;;;;;;7.02;90.69;100100.02;131274;1253;107600;-75
2023/01/12 05:58:29;;;;;;;35.50;19.30;;;;;;;7.01;90.70;100106.52;131240;1248;108704;-74
2023/01/12 06:01:35;;;;;;;53.70;25.80;;;;;;;6.99;90.70;100107.25;131086;1252;108578;-75
2023/01/12 06:04:40;;;;;;;57.70;29.70;;;;;;;6.98;90.67;100105.92;131225;1252;107541;-75
2023/01/12 06:07:46;;;;;;;34.90;17.70;;;;;;;6.95;90.75;100099.08;131327;1252;107492;-74
2023/01/12 06:10:51;;;;;;;25.90;14.70;;;;;;;6.94;90.86;100099.02;131381;1254;106546;-74
2023/01/12 06:13:57;;;;;;;37.00;18.40;;;;;;;6.93;90.65;100098.02;131364;1254;107277;-75
2023/01/12 06:17:02;;;;;;;60.00;25.80;;;;;;;6.95;90.85;100093.24;131218;1248;107529;-75
2023/01/12 06:20:13;;;;;;;37.00;17.70;;;;;;;6.96;90.81;100091.23;131220;1254;108690;-77
2023/01/12 06:23:19;;;;;;;335.70;108.20;;;;;;;6.95;90.76;100098.91;131171;1252;107454;-76
2023/01/12 06:26:25;;;;;;;127.80;45.30;;;;;;;6.93;90.52;100106.30;131139;1252;107509;-76
2023/01/12 06:29:30;;;;;;;553.40;179.50;;;;;;;6.91;90.59;100111.98;131079;1248;107561;-76
2023/01/12 06:32:37;;;;;;;220.20;89.50;;;;;;;6.88;90.65;100110.66;131141;1254;107532;-76
2023/01/12 06:35:49;;;;;;;74.00;38.90;;;;;;;6.88;90.86;100116.33;131142;1248;107351;-77
2023/01/12 06:38:54;;;;;;;40.30;23.30;;;;;;;6.87;90.70;100113.92;131127;1248;107375;-76
2023/01/12 06:45:24;;;;;;;251.40;120.80;;;;;;;6.83;90.52;100124.88;131327;1252;107729;-76
2023/01/12 06:48:30;;;;;;;113.20;56.70;;;;;;;6.79;90.85;100132.67;131338;1253;107895;-75
2023/01/12 06:51:38;;;;;;;54.90;31.40;;;;;;;6.74;90.91;100135.58;131232;1252;108788;-77
2023/01/12 06:54:45;;;;;;;70.70;41.80;;;;;;;6.73;91.02;100136.92;131090;1253;105809;-76
2023/01/12 06:57:50;;;;;;;31.40;17.80;;;;;;;6.73;90.97;100132.80;131189;1252;107797;-76
2023/01/12 07:01:02;;;;;;;174.90;73.00;;;;;;;6.77;91.13;100138.14;131164;1250;107574;-76
2023/01/12 07:04:08;;;;;;;265.10;105.90;;;;;;;6.81;90.89;100144.63;131110;1255;107638;-76
2023/01/12 07:07:13;;;;;;;666.50;309.00;;;;;;;6.85;90.71;100146.63;131079;1253;107343;-77
2023/01/12 07:10:19;;;;;;;349.30;127.70;;;;;;;6.87;90.86;100148.73;131101;1252;107465;-76
2023/01/12 07:13:25;;;;;;;344.00;115.90;;;;;;;6.87;91.03;100148.36;131129;1253;107726;-76
2023/01/12 07:16:32;;;;;;;104.90;38.40;;;;;;;6.87;90.86;100148.73;131084;1253;107629;-76
2023/01/12 07:19:38;;;;;;;378.10;112.10;;;;;;;6.89;91.03;100148.59;131142;1252;107392;-76
2023/01/12 07:22:43;;;;;;;134.40;44.80;;;;;;;6.92;90.82;100152.60;131148;1253;107590;-76
2023/01/12 07:25:49;;;;;;;101.30;37.40;;;;;;;6.93;90.74;100155.27;131070;1253;107460;-76
2023/01/12 07:28:55;;;;;;;829.00;290.40;;;;;;;6.91;90.60;100159.20;131090;1248;107516;-76
2023/01/12 07:32:01;;;;;;;223.20;65.10;;;;;;;6.88;90.71;100165.33;131161;1254;107802;-76
2023/01/12 07:35:08;;;;;;;329.00;100.70;;;;;;;6.84;90.80;100172.02;131339;1251;107390;-76
2023/01/12 07:38:13;;;;;;;78.00;30.60;;;;;;;6.81;90.98;100171.73;131308;1252;107611;-76
2023/01/12 07:44:46;;;;;;;194.00;62.50;;;;;;;6.80;90.79;100166.52;131260;1247;107467;-76
2023/01/12 07:47:54;;;;;;;254.10;86.60;;;;;;;6.80;90.58;100167.44;131333;1247;109295;-76
2023/01/12 07:51:01;;;;;;;107.70;39.50;;;;;;;6.75;90.50;100164.26;131336;1248;108626;-76
2023/01/12 07:54:06;;;;;;;70.70;31.90;;;;;;;6.72;90.74;100167.23;131327;1251;106713;-76
2023/01/12 07:57:12;;;;;;;107.70;40.40;;;;;;;6.66;90.76;100172.60;131152;1251;107522;-76
2023/01/12 08:00:22;;;;;;;65.60;27.80;;;;;;;6.61;90.49;100167.88;131235;1254;107575;-77
2023/01/12 08:03:28;;;;;;;127.70;54.20;;;;;;;6.59;90.54;100164.91;131148;1252;107444;-76
2023/01/12 08:06:33;;;;;;;83.00;42.20;;;;;;;6.59;90.67;100171.08;131074;1254;108709;-76
2023/01/12 08:09:39;;;;;;;39.70;23.20;;;;;;;6.60;90.71;100176.13;131116;1253;107557;-76
2023/01/12 08:12:45;;;;;;;34.20;20.40;;;;;;;6.65;90.43;100179.42;131099;1253;105457;-76
2023/01/12 08:15:51;;;;;;;29.10;19.40;;;;;;;6.66;90.62;100178.27;131065;1250;107254;-76
2023/01/12 08:19:01;;;;;;;19.30;12.80;;;;;;;6.66;90.70;100175.42;131116;1252;107551;-76
2023/01/12 08:22:14;;;;;;;35.20;20.80;;;;;;;6.70;90.83;100177.39;131221;1247;107500;-76
2023/01/12 08:25:26;;;;;;;20.90;13.30;;;;;;;6.79;90.44;100178.78;131123;1253;107248;-77
2023/01/12 08:28:36;;;;;;;26.00;15.30;;;;;;;6.86;90.62;100179.39;131104;1252;108609;-74
2023/01/12 08:31:42;;;;;;;21.70;13.50;;;;;;;6.94;90.62;100171.86;131086;1252;108678;-75
2023/01/12 08:34:51;;;;;;;24.00;14.20;;;;;;;7.00;90.52;100167.48;131126;1252;108662;-76
2023/01/12 08:37:57;;;;;;;19.90;13.30;;;;;;;7.02;90.46;100167.41;131066;1249;107396;-74
2023/01/12 08:44:30;;;;;;;23.30;12.20;;;;;;;7.01;90.67;100167.52;131254;1252;107479;-75
2023/01/12 08:47:36;;;;;;;70.00;29.60;;;;;;;7.02;90.49;100171.29;131138;1255;107408;-74
2023/01/12 08:50:42;;;;;;;54.10;23.90;;;;;;;7.04;90.46;100173.95;131080;1252;107467;-75
2023/01/12 08:53:48;;;;;;;37.30;17.50;;;;;;;7.05;90.57;100173.86;131047;1252;107960;-74
2023/01/12 08:56:54;;;;;;;195.50;60.90;;;;;;;7.07;90.56;100171.77;131075;1252;107529;-75
2023/01/12 09:00:00;;;;;;;61.60;23.70;;;;;;;7.11;90.63;100171.64;131052;1253;106379;-74
2023/01/12 09:03:05;;;;;;;33.70;15.90;;;;;;;7.12;90.38;100167.48;131059;1252;107563;-74
2023/01/12 09:06:14;;;;;;;27.60;14.20;;;;;;;7.14;90.29;100168.94;131217;1252;107497;-74
2023/01/12 09:09:21;;;;;;;21.80;12.70;;;;;;;7.17;90.62;100162.80;131309;1260;108738;-75
2023/01/12 09:12:27;;;;;;;21.60;13.00;;;;;;;7.21;90.54;100158.59;131143;1252;107139;-75
2023/01/12 09:15:32;;;;;;;19.60;13.00;;;;;;;7.25;90.60;100157.14;131192;1247;107511;-75
2023/01/12 09:18:38;;;;;;;20.60;12.40;;;;;;;7.28;90.48;100152.44;131423;1251;107628;-75
2023/01/12 09:21:44;;;;;;;18.40;11.20;;;;;;;7.30;90.23;100145.59;131419;1248;109328;-74
2023/01/12 09:24:49;;;;;;;19.30;10.40;;;;;;;7.30;90.46;100145.41;131388;1251;107347;-75
2023/01/12 09:27:55;;;;;;;15.30;9.70;;;;;;;7.33;90.68;100144.74;131153;1248;107551;-76
2023/01/12 09:31:06;;;;;;;31.80;19.60;;;;;;;7.41;90.59;100141.61;131413;1252;107677;-75
2023/01/12 09:34:11;;;;;;;19.90;11.30;;;;;;;7.48;90.21;100141.29;131213;1253;107500;-74
2023/01/12 09:37:17;;;;;;;30.80;17.60;;;;;;;7.54;90.35;100140.27;131281;1248;107503;-75
2023/01/12 09:40:23;;;;;;;46.00;20.50;;;;;;;7.59;90.03;100139.30;131425;1253;107563;-75
2023/01/12 09:46:58;;;;;;;41.20;18.90;;;;;;;7.65;90.08;100136.27;131232;1255;107409;-75
2023/01/12 09:50:09;;;;;;;20.10;11.20;;;;;;;7.67;89.95;100137.37;131123;1252;107513;-75
2023/01/12 09:53:20;;;;;;;20.60;12.30;;;;;;;7.71;90.00;100137.14;131364;1252;107329;-75
2023/01/12 09:56:35;;;;;;;29.30;15.60;;;;;;;7.80;89.88;100132.85;131320;1250;107521;-75
2023/01/12 09:59:53;;;;;;;132.20;73.10;;;;;;;7.88;89.79;100128.58;131418;1250;107508;-75
2023/01/12 10:03:11;;;;;;;28.80;15.60;;;;;;;7.93;89.71;100124.89;131228;1248;107275;-75
2023/01/12 10:06:19;;;;;;;31.40;18.80;;;;;;;7.97;89.31;100130.04;131180;1248;106718;-75
2023/01/12 10:09:25;;;;;;;16.90;11.30;;;;;;;7.96;88.93;100121.80;131435;1252;107424;-76
2023/01/12 10:12:40;;;;;;;23.80;16.00;;;;;;;7.95;88.95;100119.91;131319;1252;106393;-76
2023/01/12 10:15:49;;;;;;;14.60;9.80;;;;;;;7.97;88.92;100119.08;131336;1248;107471;-75
2023/01/12 10:19:00;;;;;;;27.30;17.70;;;;;;;8.01;88.82;100122.73;131207;1250;107257;-76
2023/01/12 10:22:35;;;;;;;23.50;15.50;;;;;;;8.06;88.54;100118.40;131153;1248;107245;-75
2023/01/12 10:25:43;;;;;;;13.70;9.50;;;;;;;8.13;88.41;100124.35;131070;1248;107231;-76
2023/01/12 10:28:52;;;;;;;16.20;9.90;;;;;;;8.17;88.37;100124.13;131234;1252;107415;-75
2023/01/12 10:31:57;;;;;;;14.90;10.20;;;;;;;8.19;88.12;100120.24;131135;1252;107424;-76
2023/01/12 10:35:03;;;;;;;14.40;9.40;;;;;;;8.18;88.15;100110.92;131356;1250;107297;-76
2023/01/12 10:38:20;;;;;;;13.80;8.30;;;;;;;8.16;88.04;100106.55;131117;1254;106232;-75
2023/01/12 10:41:26;;;;;;;11.30;7.70;;;;;;;8.15;87.98;100093.16;131283;1252;107710;-76
2023/01/12 10:44:32;;;;;;;16.30;10.00;;;;;;;8.17;87.91;100090.62;131453;1252;107495;-75
2023/01/12 10:47:37;;;;;;;57.00;26.30;;;;;;;8.24;87.96;100085.95;131350;1253;108686;-75
2023/01/12 10:50:55;;;;;;;65.00;27.80;;;;;;;8.31;87.63;100083.91;131319;1252;107632;-76
2023/01/12 10:54:09;;;;;;;275.70;95.90;;;;;;;8.34;87.50;100074.20;131145;1252;107959;-76
2023/01/12 10:57:19;;;;;;;300.50;93.90;;;;;;;8.37;87.48;100075.36;131014;1248;107570;-76
2023/01/12 11:00:27;;;;;;;54.50;20.00;;;;;;;8.38;87.46;100071.30;131201;1250;107491;-76
2023/01/12 11:03:36;;;;;;;72.80;29.10;;;;;;;8.39;87.23;100059.21;131130;1252;107365;-76
2023/01/12 11:06:45;;;;;;;45.60;19.70;;;;;;;8.35;87.04;100049.09;131146;1252;107612;-76
2023/01/12 11:09:51;;;;;;;42.50;17.20;;;;;;;8.35;87.02;100045.06;131099;1259;107492;-76
2023/01/12 11:12:59;;;;;;;288.70;90.70;;;;;;;8.37;86.42;100048.08;131417;1261;107532;-75
2023/01/12 11:16:17;;;;;;;293.90;93.10;;;;;;;8.38;86.34;100040.67;131120;1251;107533;-77
2023/01/12 11:19:29;;;;;;;157.80;50.10;;;;;;;8.44;86.59;100041.73;131112;1252;107242;-75
2023/01/12 11:22:37;;;;;;;57.80;22.10;;;;;;;8.49;86.29;100040.98;131359;1252;107450;-76
2023/01/12 11:25:46;;;;;;;45.70;18.40;;;;;;;8.50;86.44;100038.33;131128;1252;107371;-76
2023/01/12 11:28:55;;;;;;;77.30;26.50;;;;;;;8.51;85.74;100035.12;131335;1252;108546;-75
2023/01/12 11:32:06;;;;;;;47.80;18.70;;;;;;;8.48;85.82;100030.16;131258;1252;107402;-76
2023/01/12 11:35:22;;;;;;;82.20;33.60;;;;;;;8.43;85.79;100031.58;131389;1252;108575;-76
2023/01/12 11:38:32;;;;;;;23.70;10.40;;;;;;;8.39;85.53;100028.55;131120;1261;107618;-76
2023/01/12 11:43:47;;;;;;;195.20;73.90;;;;;;;8.39;85.63;100022.55;131416;1251;107520;-75
2023/01/12 11:45:17;;;;;;;46.60;21.20;;;;;;;8.41;85.53;100022.48;131298;1251;107618;-76
2023/01/12 11:48:34;;;;;;;24.50;12.80;;;;;;;8.47;85.40;100023.77;131477;1251;107388;-75
2023/01/12 11:51:40;;;;;;;34.90;19.40;;;;;;;8.52;85.10;100021.36;131476;1247;107211;-76
2023/01/12 11:54:46;;;;;;;105.20;35.00;;;;;;;8.54;85.18;100020.27;131335;1251;107485;-75
2023/01/12 11:58:02;;;;;;;139.10;49.00;;;;;;;8.55;84.98;100013.89;131097;1249;107445;-75
2023/01/12 12:01:15;;;;;;;68.60;23.60;;;;;;;8.54;84.65;100012.42;131339;1251;107478;-77
2023/01/12 12:04:43;;;;;;;107.50;37.70;;;;;;;8.51;84.64;100006.31;131396;1252;106498;-76
2023/01/12 12:08:03;;;;;;;179.30;56.90;;;;;;;8.50;84.61;100006.15;131326;1251;107510;-75
2023/01/12 12:11:19;;;;;;;324.60;89.90;;;;;;;8.47;84.76;100008.52;131302;1261;107554;-75
2023/01/12 12:14:39;;;;;;;199.50;60.90;;;;;;;8.47;84.60;100010.63;131303;1251;107616;-76
2023/01/12 12:17:56;;;;;;;229.10;70.00;;;;;;;8.49;84.07;100001.36;131298;1251;107609;-75
2023/01/12 12:21:16;;;;;;;831.40;307.50;;;;;;;8.53;84.10;100000.14;131299;1251;107231;-76
2023/01/12 12:24:51;;;;;;;638.50;213.40;;;;;;;8.57;83.58;99998.47;131368;1250;107505;-76
2023/01/12 12:28:30;;;;;;;191.40;53.60;;;;;;;8.58;83.56;99995.17;131203;1252;107376;-76
2023/01/12 12:32:00;;;;;;;266.00;87.60;;;;;;;8.58;83.25;99998.58;131359;1252;107474;-77
2023/01/12 12:35:28;;;;;;;81.30;28.90;;;;;;;8.56;82.91;99988.85;131361;1252;107715;-75
2023/01/12 12:38:48;;;;;;;266.50;101.60;;;;;;;8.53;83.14;99987.38;131029;1252;107340;-76
2023/01/12 12:45:37;;;;;;;;;;;;;;;8.48;83.14;99981.69;131259;1252;109632;-78
2023/01/12 12:48:52;;;;;;;37.00;20.00;;;;;;;8.42;82.64;99982.15;131314;1248;107527;-76
2023/01/12 12:52:00;;;;;;;14.80;9.00;;;;;;;8.36;83.01;99975.80;131348;1251;107488;-75
2023/01/12 12:55:11;;;;;;;12.30;6.10;;;;;;;8.35;82.77;99973.09;131336;1259;107406;-75
2023/01/12 12:58:38;;;;;;;15.80;10.40;;;;;;;8.35;82.59;99972.09;131428;1252;107556;-76
2023/01/12 13:01:56;;;;;;;11.60;6.80;;;;;;;8.40;83.15;99968.04;131450;1250;107537;-77
2023/01/12 13:05:04;;;;;;;11.70;7.00;;;;;;;8.44;82.68;99962.11;131201;1251;105601;-76
2023/01/12 13:08:20;;;;;;;15.80;6.80;;;;;;;8.46;82.64;99959.66;131086;1252;107399;-75
2023/01/12 13:11:52;;;;;;;13.20;7.70;;;;;;;8.44;82.35;99963.56;131070;1248;107242;-75
2023/01/12 13:15:28;;;;;;;11.70;7.00;;;;;;;8.42;82.34;99960.91;131291;1252;106494;-76
2023/01/12 13:19:04;;;;;;;10.10;5.80;;;;;;;8.40;82.36;99956.17;131237;1248;107153;-75
2023/01/12 13:22:28;;;;;;;15.70;7.40;;;;;;;8.34;82.14;99953.52;131091;1248;107232;-75
2023/01/12 13:26:03;;;;;;;29.40;12.40;;;;;;;8.30;81.96;99951.81;131204;1252;106454;-76
2023/01/12 13:29:48;;;;;;;19.10;8.40;;;;;;;8.22;81.88;99952.83;130819;1267;107540;-76
2023/01/12 13:33:01;;;;;;;14.90;6.80;;;;;;;8.18;81.88;99960.83;131361;1260;107429;-76
2023/01/12 13:36:09;;;;;;;;;;;;;;;8.19;81.63;99958.14;131435;1252;108557;-75
2023/01/12 13:39:15;;;;;;;11.30;5.60;;;;;;;8.21;81.72;99960.88;131356;1263;107557;-75
2023/01/12 13:45:55;;;;;;;20.60;9.20;;;;;;;8.23;81.56;99945.34;131367;1252;105786;-76
2023/01/12 13:49:01;;;;;;;20.60;8.90;;;;;;;8.21;81.28;99936.85;131354;1247;107306;-75
2023/01/12 13:52:19;;;;;;;17.70;8.60;;;;;;;8.17;81.24;99935.60;131384;1252;107464;-76
2023/01/12 13:55:27;;;;;;;36.80;15.20;;;;;;;8.11;81.25;99932.61;131245;1252;107115;-75
2023/01/12 13:58:40;;;;;;;16.00;8.10;;;;;;;8.05;81.23;99936.21;131420;1254;107521;-76
2023/01/12 14:01:48;;;;;;;14.40;6.00;;;;;;;7.99;81.33;99938.20;131389;1252;107568;-76
2023/01/12 14:05:14;;;;;;;40.50;16.10;;;;;;;7.93;81.20;99937.41;131385;1251;107505;-76
2023/01/12 14:08:37;;;;;;;12.60;6.10;;;;;;;7.84;80.83;99932.90;131411;1252;107189;-76
2023/01/12 14:12:06;;;;;;;15.20;6.90;;;;;;;7.75;81.17;99925.59;131354;1252;107503;-76
2023/01/12 14:18:59;;;;;;;12.60;5.50;;;;;;;7.68;81.18;99929.45;131404;1252;105767;-76
2023/01/12 14:22:05;;;;;;;24.20;9.00;;;;;;;7.68;81.11;99923.60;131370;1252;107184;-75
2023/01/12 14:25:24;;;;;;;37.10;15.80;;;;;;;7.69;81.20;99919.80;131386;1250;107325;-76
2023/01/12 14:28:30;;;;;;;83.10;34.60;;;;;;;7.66;81.01;99920.75;131386;1253;106596;-75
2023/01/12 14:31:39;;;;;;;20.80;8.50;;;;;;;7.63;81.01;99914.48;131368;1252;107403;-75
2023/01/12 14:34:51;;;;;;;17.70;7.80;;;;;;;7.57;80.92;99912.90;131408;1249;106245;-76
2023/01/12 14:37:56;;;;;;;;;;;;;;;7.50;80.89;99909.34;131364;1252;107442;-76
2023/01/12 14:41:05;;;;;;;11.30;5.00;;;;;;;7.42;80.75;99903.10;131327;1248;106378;-76
2023/01/12 14:47:42;;;;;;;10.10;4.50;;;;;;;7.24;80.93;99910.20;131112;1252;106661;-76
2023/01/12 14:51:21;;;;;;;305.80;94.30;;;;;;;7.17;80.92;99905.92;131280;1255;107285;-76
2023/01/12 14:54:31;;;;;;;38.00;13.50;;;;;;;7.06;80.93;99894.52;131245;1252;107434;-76
2023/01/12 14:57:37;;;;;;;102.00;32.50;;;;;;;6.99;81.03;99895.17;131185;1248;107934;-76
2023/01/12 15:00:44;;;;;;;205.90;62.10;;;;;;;6.95;81.06;99890.58;131381;1252;107399;-76
2023/01/12 15:03:51;;;;;;;65.10;24.00;;;;;;;6.93;80.89;99897.17;131389;1252;107533;-76
2023/01/12 15:07:05;;;;;;;195.90;86.00;;;;;;;6.93;80.82;99907.95;131438;1252;107232;-77
2023/01/12 15:10:29;;;;;;;57.60;25.00;;;;;;;6.90;80.89;99905.58;131406;1250;107546;-75